createdAt,value
2023-02-14T00:02:27.026Z,5.59
2023-02-14T00:07:31.456Z,5.62
2023-02-14T00:23:12.964Z,5.54
2023-02-14T00:28:16.197Z,5.55
2023-02-14T00:33:19.592Z,5.57
2023-02-14T00:38:23.166Z,5.55
2023-02-14T00:43:26.405Z,5.51
2023-02-14T00:48:29.649Z,5.47
2023-02-14T00:53:33.163Z,5.46
2023-02-14T00:58:36.698Z,5.46
2023-02-14T01:03:40.635Z,5.46
2023-02-14T01:08:44.315Z,5.42
2023-02-14T01:13:49.624Z,5.39
2023-02-14T01:18:53.764Z,5.41
2023-02-14T01:24:00.177Z,5.40
2023-02-14T01:29:05.465Z,5.38
2023-02-14T01:34:08.805Z,5.32
2023-02-14T01:39:14.413Z,5.28
2023-02-14T01:44:17.724Z,5.28
2023-02-14T01:49:27.370Z,5.25
2023-02-14T01:54:33.753Z,5.19
2023-02-14T01:59:40.102Z,5.16
2023-02-14T02:04:46.806Z,5.15
2023-02-14T02:09:55.448Z,5.12
2023-02-14T02:15:02.270Z,5.05
2023-02-14T02:20:44.484Z,5.02
2023-02-14T02:26:03.634Z,5.06
2023-02-14T02:31:16.250Z,5.06
2023-02-14T02:36:52.564Z,5.02
2023-02-14T02:42:25.200Z,4.95
2023-02-14T02:47:40.980Z,4.95
2023-02-14T02:53:02.843Z,4.93
2023-02-14T02:58:06.478Z,4.89
2023-02-14T03:03:29.827Z,4.88
2023-02-14T03:08:33.203Z,4.91
2023-02-14T03:13:54.798Z,4.92
2023-02-14T03:19:26.854Z,4.86
2023-02-14T03:24:46.391Z,4.78
2023-02-14T03:30:14.104Z,4.76
2023-02-14T03:35:30.881Z,4.76
2023-02-14T03:40:40.603Z,4.73
2023-02-14T03:45:54.853Z,4.72
2023-02-14T03:51:00.623Z,4.67
2023-02-14T03:56:18.857Z,4.66
2023-02-14T04:01:28.555Z,4.67
2023-02-14T04:06:31.992Z,4.70
2023-02-14T04:11:35.870Z,4.69
2023-02-14T04:16:58.156Z,4.68
2023-02-14T04:22:01.617Z,4.63
2023-02-14T04:27:11.166Z,4.57
2023-02-14T04:32:18.046Z,4.58
2023-02-14T04:37:21.427Z,4.58
2023-02-14T04:42:24.802Z,4.57
2023-02-14T04:47:28.087Z,4.52
2023-02-14T04:52:31.488Z,4.49
2023-02-14T04:57:34.811Z,4.48
2023-02-14T05:02:38.520Z,4.50
2023-02-14T05:07:47.852Z,4.47
2023-02-14T05:12:51.292Z,4.45
2023-02-14T05:17:54.636Z,4.47
2023-02-14T05:23:03.424Z,4.45
2023-02-14T05:28:07.172Z,4.42
2023-02-14T05:33:10.643Z,4.39
2023-02-14T05:38:14.221Z,4.37
2023-02-14T05:43:17.700Z,4.38
2023-02-14T05:48:21.356Z,4.40
2023-02-14T05:53:24.739Z,4.41
2023-02-14T05:58:28.344Z,4.38
2023-02-14T06:03:31.729Z,4.35
2023-02-14T06:08:35.033Z,4.34
2023-02-14T06:13:40.688Z,4.32
2023-02-14T06:18:44.203Z,4.28
2023-02-14T06:23:47.289Z,4.25
2023-02-14T06:28:54.510Z,4.22
2023-02-14T06:33:57.746Z,4.23
2023-02-14T06:39:00.995Z,4.27
2023-02-14T06:44:04.741Z,4.30
2023-02-14T06:49:10.082Z,4.29
2023-02-14T06:54:13.636Z,4.23
2023-02-14T06:59:16.970Z,4.23
2023-02-14T07:04:20.513Z,4.27
2023-02-14T07:09:24.025Z,4.29
2023-02-14T07:14:27.206Z,4.26
2023-02-14T07:19:30.377Z,4.29
2023-02-14T07:24:33.867Z,4.34
2023-02-14T07:29:37.582Z,4.39
2023-02-14T07:34:40.921Z,4.38
2023-02-14T07:39:45.640Z,4.36
2023-02-14T07:44:49.005Z,4.40
2023-02-14T07:49:52.188Z,4.42
2023-02-14T07:54:55.543Z,4.42
2023-02-14T07:59:58.702Z,4.43
2023-02-14T08:05:01.949Z,4.50
2023-02-14T08:10:06.150Z,4.55
2023-02-14T08:15:28.545Z,4.57
2023-02-14T08:20:31.879Z,4.56
2023-02-14T08:25:35.261Z,4.57
2023-02-14T08:30:38.431Z,4.57
2023-02-14T08:35:41.778Z,4.58
2023-02-14T08:40:45.097Z,4.58
2023-02-14T08:45:49.842Z,4.61
2023-02-14T08:50:53.381Z,4.67
2023-02-14T08:56:02.240Z,4.72
2023-02-14T09:01:17.415Z,4.79
2023-02-14T09:06:20.992Z,4.84
2023-02-14T09:11:25.851Z,4.93
2023-02-14T09:16:29.199Z,4.97
2023-02-14T09:21:32.462Z,4.97
2023-02-14T09:26:37.177Z,4.88
2023-02-14T09:31:40.579Z,4.80
2023-02-14T09:37:06.538Z,4.81
2023-02-14T09:42:51.939Z,4.83
2023-02-14T09:48:01.640Z,4.87
2023-02-14T09:53:16.608Z,4.88
2023-02-14T09:58:27.893Z,4.92
2023-02-14T10:04:09.424Z,4.97
2023-02-14T10:09:24.813Z,5.02
2023-02-14T10:14:33.981Z,5.02
2023-02-14T10:19:50.005Z,4.98
2023-02-14T10:25:02.034Z,4.97
2023-02-14T10:30:24.891Z,5.01
2023-02-14T10:35:52.678Z,5.04
2023-02-14T10:41:08.151Z,5.10
2023-02-14T10:46:43.101Z,5.19
2023-02-14T10:52:15.812Z,5.27
2023-02-14T10:57:27.840Z,5.30
2023-02-14T11:02:42.640Z,5.30
2023-02-14T11:07:46.183Z,5.30
2023-02-14T11:12:49.478Z,5.34
2023-02-14T11:18:12.671Z,5.35
2023-02-14T11:23:21.472Z,5.42
2023-02-14T11:28:28.347Z,5.44
2023-02-14T11:33:51.497Z,5.45
2023-02-14T11:39:06.692Z,5.49
2023-02-14T11:44:22.823Z,5.58
2023-02-14T11:49:32.287Z,5.60
2023-02-14T11:54:39.215Z,5.60
2023-02-14T11:59:45.579Z,5.60
2023-02-14T12:04:53.033Z,5.67
2023-02-14T12:10:11.119Z,5.73
2023-02-14T12:15:27.948Z,5.77
2023-02-14T12:20:44.397Z,5.72
2023-02-14T12:25:55.727Z,5.74
2023-02-14T12:30:59.582Z,5.77
2023-02-14T12:36:16.660Z,5.80
2023-02-14T12:41:41.034Z,5.82
2023-02-14T12:47:15.409Z,5.83
2023-02-14T12:52:33.601Z,5.83
2023-02-14T12:58:23.777Z,5.87
2023-02-14T13:03:56.701Z,5.89
2023-02-14T13:09:31.539Z,5.91
2023-02-14T13:15:15.224Z,5.92
2023-02-14T13:20:54.369Z,5.97
2023-02-14T13:26:04.220Z,6.04
2023-02-14T13:31:07.661Z,6.08
2023-02-14T13:36:13.792Z,6.04
2023-02-14T13:41:19.525Z,5.96
2023-02-14T13:46:46.750Z,5.98
2023-02-14T13:51:53.064Z,6.09
2023-02-14T13:56:57.923Z,6.11
2023-02-14T14:02:28.328Z,6.11
2023-02-14T14:07:33.305Z,6.08
2023-02-14T14:12:40.489Z,6.03
2023-02-14T14:17:50.104Z,6.03
2023-02-14T14:22:58.708Z,6.05
2023-02-14T14:28:02.201Z,6.08
2023-02-14T14:33:26.997Z,6.09
2023-02-14T14:38:31.841Z,6.04
2023-02-14T14:43:39.481Z,6.00
2023-02-14T14:48:51.349Z,5.97
2023-02-14T14:53:57.461Z,5.97
2023-02-14T14:59:28.657Z,6.07
2023-02-14T15:04:36.079Z,6.11
2023-02-14T15:09:42.365Z,6.11
2023-02-14T15:14:54.675Z,6.05
2023-02-14T15:20:02.470Z,5.98
2023-02-14T15:25:18.501Z,5.95
2023-02-14T15:30:24.010Z,5.95
2023-02-14T15:35:33.589Z,5.95
2023-02-14T15:40:38.975Z,5.93
2023-02-14T15:45:45.135Z,5.89
2023-02-14T15:50:52.745Z,5.86
2023-02-14T15:56:09.324Z,5.89
2023-02-14T16:01:13.618Z,5.90
2023-02-14T16:06:34.075Z,5.86
2023-02-14T16:11:38.783Z,5.76
2023-02-14T16:17:00.294Z,5.70
2023-02-14T16:22:04.480Z,5.66
2023-02-14T16:27:07.966Z,5.66
2023-02-14T16:32:21.252Z,5.68
2023-02-14T16:37:35.010Z,5.71
2023-02-14T16:42:40.418Z,5.70
2023-02-14T16:47:47.085Z,5.66
2023-02-14T16:52:56.000Z,5.60
2023-02-14T16:58:01.855Z,5.56
2023-02-14T17:03:18.371Z,5.56
2023-02-14T17:08:21.828Z,5.55
2023-02-14T17:13:27.881Z,5.51
2023-02-14T17:18:33.427Z,5.47
2023-02-14T17:23:36.758Z,5.44
2023-02-14T17:28:40.166Z,5.47
2023-02-14T17:33:43.570Z,5.49
2023-02-14T17:38:47.058Z,5.49
2023-02-14T17:43:51.266Z,5.45
2023-02-14T17:48:55.451Z,5.39
2023-02-14T17:53:59.067Z,5.39
2023-02-14T17:59:02.423Z,5.41
2023-02-14T18:04:05.963Z,5.44
2023-02-14T18:09:09.463Z,5.43
2023-02-14T18:14:12.663Z,5.43
2023-02-14T18:19:17.157Z,5.40
2023-02-14T18:24:20.491Z,5.34
2023-02-14T18:29:24.653Z,5.32
2023-02-14T18:34:28.479Z,5.32
2023-02-14T18:39:32.881Z,5.32
2023-02-14T18:44:36.059Z,5.27
2023-02-14T18:49:39.497Z,5.25
2023-02-14T18:54:42.853Z,5.23
2023-02-14T18:59:46.082Z,5.29
2023-02-14T19:04:49.307Z,5.32
2023-02-14T19:09:52.868Z,5.29
2023-02-14T19:14:56.844Z,5.23
2023-02-14T19:20:00.205Z,5.20
2023-02-14T19:25:03.442Z,5.19
2023-02-14T19:30:07.975Z,5.22
2023-02-14T19:35:12.038Z,5.25
2023-02-14T19:40:15.493Z,5.22
2023-02-14T19:45:18.739Z,5.17
2023-02-14T19:50:22.309Z,5.14
2023-02-14T19:55:25.925Z,5.15
2023-02-14T20:00:29.624Z,5.20
2023-02-14T20:05:33.206Z,5.25
2023-02-14T20:10:36.348Z,5.20
2023-02-14T20:15:40.302Z,5.11
2023-02-14T20:21:03.006Z,4.97
2023-02-14T20:26:12.495Z,4.88
2023-02-14T20:31:19.657Z,4.84
2023-02-14T20:36:24.033Z,4.79
2023-02-14T20:41:28.565Z,4.75
2023-02-14T20:46:33.888Z,4.68
2023-02-14T20:51:37.031Z,4.61
2023-02-14T20:56:40.419Z,4.59
2023-02-14T21:01:43.896Z,4.66
2023-02-14T21:06:49.093Z,4.71
2023-02-14T21:11:54.191Z,4.81
2023-02-14T21:16:57.831Z,4.79
2023-02-14T21:22:21.464Z,4.73
2023-02-14T21:27:24.685Z,4.68
2023-02-14T21:32:28.727Z,4.67
2023-02-14T21:37:32.395Z,4.71
2023-02-14T21:42:35.583Z,4.77
2023-02-14T21:47:39.959Z,4.80
2023-02-14T21:52:43.100Z,4.78
2023-02-14T21:57:46.195Z,4.78
2023-02-14T22:02:49.304Z,4.75
2023-02-14T22:07:52.595Z,4.77
2023-02-14T22:12:55.684Z,4.81
2023-02-14T22:17:58.728Z,4.89
2023-02-14T22:23:01.888Z,4.96
2023-02-14T22:28:05.063Z,4.95
2023-02-14T22:33:08.158Z,4.91
2023-02-14T22:38:12.106Z,4.87
2023-02-14T22:43:16.704Z,4.84
2023-02-14T22:48:20.614Z,4.89
2023-02-14T22:53:23.807Z,4.92
2023-02-14T22:58:26.981Z,4.92
2023-02-14T23:03:31.140Z,4.88
2023-02-14T23:08:34.418Z,4.84
2023-02-14T23:13:56.722Z,4.84
2023-02-14T23:19:26.082Z,4.87
2023-02-14T23:24:29.241Z,4.91
2023-02-14T23:29:32.919Z,4.95
2023-02-14T23:34:39.272Z,4.92
2023-02-14T23:39:42.546Z,4.87
2023-02-14T23:44:46.291Z,4.85
2023-02-14T23:49:49.812Z,4.84
2023-02-14T23:54:53.089Z,4.84
2023-02-14T23:59:56.436Z,4.89
